sensor_id;sensor_type;location;lat;lon;timestamp;temperature;humidity
70271;SHT31;57680;54.292;18.598;2023-04-30T00:00:35;5.93;80.07
70271;SHT31;57680;54.292;18.598;2023-04-30T00:03:01;5.94;79.72
70271;SHT31;57680;54.292;18.598;2023-04-30T00:05:26;5.96;79.52
70271;SHT31;57680;54.292;18.598;2023-04-30T00:07:52;5.93;79.77
70271;SHT31;57680;54.292;18.598;2023-04-30T00:10:17;5.89;79.57
70271;SHT31;57680;54.292;18.598;2023-04-30T00:12:43;5.85;79.97
70271;SHT31;57680;54.292;18.598;2023-04-30T00:15:08;5.85;80.02
70271;SHT31;57680;54.292;18.598;2023-04-30T00:17:34;5.83;80.13
70271;SHT31;57680;54.292;18.598;2023-04-30T00:19:59;5.73;80.38
70271;SHT31;57680;54.292;18.598;2023-04-30T00:22:25;5.62;80.40
70271;SHT31;57680;54.292;18.598;2023-04-30T00:24:51;5.56;80.57
70271;SHT31;57680;54.292;18.598;2023-04-30T00:27:16;5.51;80.87
70271;SHT31;57680;54.292;18.598;2023-04-30T00:29:42;5.38;81.09
70271;SHT31;57680;54.292;18.598;2023-04-30T00:32:07;5.31;81.20
70271;SHT31;57680;54.292;18.598;2023-04-30T00:34:33;5.25;81.26
70271;SHT31;57680;54.292;18.598;2023-04-30T00:36:58;5.18;81.41
70271;SHT31;57680;54.292;18.598;2023-04-30T00:39:23;5.20;81.60
70271;SHT31;57680;54.292;18.598;2023-04-30T00:41:49;5.18;81.39
70271;SHT31;57680;54.292;18.598;2023-04-30T00:44:14;5.17;81.36
70271;SHT31;57680;54.292;18.598;2023-04-30T00:46:40;5.11;81.22
70271;SHT31;57680;54.292;18.598;2023-04-30T00:49:05;5.07;81.29
70271;SHT31;57680;54.292;18.598;2023-04-30T00:51:31;5.11;81.09
70271;SHT31;57680;54.292;18.598;2023-04-30T00:53:59;4.98;81.25
70271;SHT31;57680;54.292;18.598;2023-04-30T00:56:25;4.91;81.52
70271;SHT31;57680;54.292;18.598;2023-04-30T00:58:50;4.87;81.80
70271;SHT31;57680;54.292;18.598;2023-04-30T01:01:16;4.90;81.89
70271;SHT31;57680;54.292;18.598;2023-04-30T01:03:42;4.81;81.78
70271;SHT31;57680;54.292;18.598;2023-04-30T01:06:07;4.77;82.26
70271;SHT31;57680;54.292;18.598;2023-04-30T01:08:33;4.80;81.90
70271;SHT31;57680;54.292;18.598;2023-04-30T01:11:25;4.79;81.80
70271;SHT31;57680;54.292;18.598;2023-04-30T01:14:03;4.76;81.58
70271;SHT31;57680;54.292;18.598;2023-04-30T01:16:35;4.73;81.48
70271;SHT31;57680;54.292;18.598;2023-04-30T01:19:12;4.79;81.07
70271;SHT31;57680;54.292;18.598;2023-04-30T01:21:43;4.85;80.66
70271;SHT31;57680;54.292;18.598;2023-04-30T01:24:14;4.81;80.65
70271;SHT31;57680;54.292;18.598;2023-04-30T01:29:46;4.81;80.53
70271;SHT31;57680;54.292;18.598;2023-04-30T01:32:12;4.80;80.61
70271;SHT31;57680;54.292;18.598;2023-04-30T01:34:37;4.77;80.59
70271;SHT31;57680;54.292;18.598;2023-04-30T01:37:23;4.74;80.77
70271;SHT31;57680;54.292;18.598;2023-04-30T01:42:35;4.62;81.33
70271;SHT31;57680;54.292;18.598;2023-04-30T01:46:07;4.60;81.29
70271;SHT31;57680;54.292;18.598;2023-04-30T01:53:48;4.49;81.58
70271;SHT31;57680;54.292;18.598;2023-04-30T01:56:37;4.50;81.61
70271;SHT31;57680;54.292;18.598;2023-04-30T01:59:05;4.42;81.51
70271;SHT31;57680;54.292;18.598;2023-04-30T02:01:32;4.32;82.16
70271;SHT31;57680;54.292;18.598;2023-04-30T02:03:58;4.35;81.97
70271;SHT31;57680;54.292;18.598;2023-04-30T02:06:24;4.29;82.22
70271;SHT31;57680;54.292;18.598;2023-04-30T02:08:49;4.22;82.46
70271;SHT31;57680;54.292;18.598;2023-04-30T02:11:14;4.25;82.54
70271;SHT31;57680;54.292;18.598;2023-04-30T02:13:40;4.23;82.50
70271;SHT31;57680;54.292;18.598;2023-04-30T02:16:06;4.19;82.93
70271;SHT31;57680;54.292;18.598;2023-04-30T02:18:31;4.19;82.93
70271;SHT31;57680;54.292;18.598;2023-04-30T02:20:57;4.29;82.43
70271;SHT31;57680;54.292;18.598;2023-04-30T02:23:22;4.23;82.93
70271;SHT31;57680;54.292;18.598;2023-04-30T02:25:48;4.26;82.64
70271;SHT31;57680;54.292;18.598;2023-04-30T02:28:13;4.23;82.55
70271;SHT31;57680;54.292;18.598;2023-04-30T02:30:38;4.18;82.86
70271;SHT31;57680;54.292;18.598;2023-04-30T02:33:04;4.16;83.00
70271;SHT31;57680;54.292;18.598;2023-04-30T02:35:29;4.09;83.25
70271;SHT31;57680;54.292;18.598;2023-04-30T02:37:54;4.06;83.37
70271;SHT31;57680;54.292;18.598;2023-04-30T02:40:20;4.08;83.27
70271;SHT31;57680;54.292;18.598;2023-04-30T02:42:45;4.08;83.45
70271;SHT31;57680;54.292;18.598;2023-04-30T02:45:11;4.06;83.50
70271;SHT31;57680;54.292;18.598;2023-04-30T02:47:36;4.03;83.50
70271;SHT31;57680;54.292;18.598;2023-04-30T02:50:02;3.97;83.73
70271;SHT31;57680;54.292;18.598;2023-04-30T02:52:27;4.01;83.39
70271;SHT31;57680;54.292;18.598;2023-04-30T02:54:53;3.85;83.83
70271;SHT31;57680;54.292;18.598;2023-04-30T02:57:19;3.78;84.04
70271;SHT31;57680;54.292;18.598;2023-04-30T02:59:44;3.75;84.48
70271;SHT31;57680;54.292;18.598;2023-04-30T03:05:22;3.66;84.47
70271;SHT31;57680;54.292;18.598;2023-04-30T03:08:03;3.63;84.75
70271;SHT31;57680;54.292;18.598;2023-04-30T03:26:32;4.31;83.19
70271;SHT31;57680;54.292;18.598;2023-04-30T03:35:06;5.11;80.04
70271;SHT31;57680;54.292;18.598;2023-04-30T03:37:32;5.28;79.20
70271;SHT31;57680;54.292;18.598;2023-04-30T03:39:57;5.43;78.46
70271;SHT31;57680;54.292;18.598;2023-04-30T03:42:22;5.72;77.46
70271;SHT31;57680;54.292;18.598;2023-04-30T03:44:48;5.85;77.36
70271;SHT31;57680;54.292;18.598;2023-04-30T03:47:15;6.04;76.81
70271;SHT31;57680;54.292;18.598;2023-04-30T03:49:41;6.21;75.88
70271;SHT31;57680;54.292;18.598;2023-04-30T03:52:09;6.41;75.35
70271;SHT31;57680;54.292;18.598;2023-04-30T03:54:35;6.48;74.84
70271;SHT31;57680;54.292;18.598;2023-04-30T03:57:00;6.71;74.45
70271;SHT31;57680;54.292;18.598;2023-04-30T03:59:26;6.93;73.52
70271;SHT31;57680;54.292;18.598;2023-04-30T04:01:51;7.10;73.18
70271;SHT31;57680;54.292;18.598;2023-04-30T04:04:18;7.28;72.86
70271;SHT31;57680;54.292;18.598;2023-04-30T04:06:43;7.35;71.52
70271;SHT31;57680;54.292;18.598;2023-04-30T04:09:09;7.61;71.73
70271;SHT31;57680;54.292;18.598;2023-04-30T04:11:34;7.74;71.04
70271;SHT31;57680;54.292;18.598;2023-04-30T04:14:00;7.95;71.26
70271;SHT31;57680;54.292;18.598;2023-04-30T04:16:25;8.21;69.98
70271;SHT31;57680;54.292;18.598;2023-04-30T04:18:51;8.36;69.93
70271;SHT31;57680;54.292;18.598;2023-04-30T04:21:17;8.53;68.68
70271;SHT31;57680;54.292;18.598;2023-04-30T04:23:42;8.64;68.58
70271;SHT31;57680;54.292;18.598;2023-04-30T04:26:08;8.67;69.40
70271;SHT31;57680;54.292;18.598;2023-04-30T04:28:33;8.64;68.38
70271;SHT31;57680;54.292;18.598;2023-04-30T04:30:59;8.44;69.13
70271;SHT31;57680;54.292;18.598;2023-04-30T04:33:24;8.56;68.78
70271;SHT31;57680;54.292;18.598;2023-04-30T04:35:50;8.78;68.84
70271;SHT31;57680;54.292;18.598;2023-04-30T04:38:15;9.10;67.42
70271;SHT31;57680;54.292;18.598;2023-04-30T04:40:49;9.03;67.69
70271;SHT31;57680;54.292;18.598;2023-04-30T04:43:14;9.26;67.33
70271;SHT31;57680;54.292;18.598;2023-04-30T04:45:40;9.43;66.02
70271;SHT31;57680;54.292;18.598;2023-04-30T04:48:05;9.73;65.72
70271;SHT31;57680;54.292;18.598;2023-04-30T04:50:30;9.84;65.42
70271;SHT31;57680;54.292;18.598;2023-04-30T04:52:56;9.83;65.72
70271;SHT31;57680;54.292;18.598;2023-04-30T04:55:22;9.76;65.57
70271;SHT31;57680;54.292;18.598;2023-04-30T04:57:47;9.77;65.07
70271;SHT31;57680;54.292;18.598;2023-04-30T05:00:12;9.86;65.65
70271;SHT31;57680;54.292;18.598;2023-04-30T05:02:40;10.15;66.12
70271;SHT31;57680;54.292;18.598;2023-04-30T05:05:05;10.30;64.53
70271;SHT31;57680;54.292;18.598;2023-04-30T05:07:31;10.30;64.83
70271;SHT31;57680;54.292;18.598;2023-04-30T05:09:56;10.48;65.97
70271;SHT31;57680;54.292;18.598;2023-04-30T05:12:22;10.62;64.65
70271;SHT31;57680;54.292;18.598;2023-04-30T05:14:48;10.40;65.01
70271;SHT31;57680;54.292;18.598;2023-04-30T05:17:13;10.73;64.21
70271;SHT31;57680;54.292;18.598;2023-04-30T05:19:39;11.02;63.98
70271;SHT31;57680;54.292;18.598;2023-04-30T05:22:04;10.69;63.92
70271;SHT31;57680;54.292;18.598;2023-04-30T05:24:30;10.76;64.01
70271;SHT31;57680;54.292;18.598;2023-04-30T05:26:55;10.92;64.21
70271;SHT31;57680;54.292;18.598;2023-04-30T05:29:20;11.12;64.01
70271;SHT31;57680;54.292;18.598;2023-04-30T05:31:46;10.77;63.43
70271;SHT31;57680;54.292;18.598;2023-04-30T05:34:11;10.75;63.90
70271;SHT31;57680;54.292;18.598;2023-04-30T05:36:37;10.82;65.06
70271;SHT31;57680;54.292;18.598;2023-04-30T05:39:03;10.96;64.10
70271;SHT31;57680;54.292;18.598;2023-04-30T05:41:28;11.09;62.44
70271;SHT31;57680;54.292;18.598;2023-04-30T05:43:53;11.02;63.17
70271;SHT31;57680;54.292;18.598;2023-04-30T05:46:19;11.04;63.42
70271;SHT31;57680;54.292;18.598;2023-04-30T05:48:44;11.04;62.69
70271;SHT31;57680;54.292;18.598;2023-04-30T05:51:09;11.07;64.15
70271;SHT31;57680;54.292;18.598;2023-04-30T05:53:35;11.07;63.36
70271;SHT31;57680;54.292;18.598;2023-04-30T05:56:00;11.33;62.08
70271;SHT31;57680;54.292;18.598;2023-04-30T05:58:26;11.09;62.53
70271;SHT31;57680;54.292;18.598;2023-04-30T06:00:51;11.22;62.03
70271;SHT31;57680;54.292;18.598;2023-04-30T06:03:18;11.20;61.67
70271;SHT31;57680;54.292;18.598;2023-04-30T06:05:46;11.17;63.25
70271;SHT31;57680;54.292;18.598;2023-04-30T06:08:12;11.40;62.57
70271;SHT31;57680;54.292;18.598;2023-04-30T06:10:37;11.20;62.64
70271;SHT31;57680;54.292;18.598;2023-04-30T06:13:03;11.22;62.42
70271;SHT31;57680;54.292;18.598;2023-04-30T06:15:28;10.99;64.16
70271;SHT31;57680;54.292;18.598;2023-04-30T06:17:54;11.43;62.84
70271;SHT31;57680;54.292;18.598;2023-04-30T06:20:19;11.48;62.09
70271;SHT31;57680;54.292;18.598;2023-04-30T06:22:45;11.33;60.98
70271;SHT31;57680;54.292;18.598;2023-04-30T06:25:10;11.20;62.76
70271;SHT31;57680;54.292;18.598;2023-04-30T06:27:36;11.17;63.28
70271;SHT31;57680;54.292;18.598;2023-04-30T06:30:01;10.93;63.92
70271;SHT31;57680;54.292;18.598;2023-04-30T06:32:26;10.72;65.24
70271;SHT31;57680;54.292;18.598;2023-04-30T06:34:52;10.44;63.99
70271;SHT31;57680;54.292;18.598;2023-04-30T06:37:17;10.27;64.28
70271;SHT31;57680;54.292;18.598;2023-04-30T06:39:43;10.17;63.81
70271;SHT31;57680;54.292;18.598;2023-04-30T06:42:08;10.15;65.33
70271;SHT31;57680;54.292;18.598;2023-04-30T06:44:34;10.13;66.71
70271;SHT31;57680;54.292;18.598;2023-04-30T06:47:00;10.25;66.51
70271;SHT31;57680;54.292;18.598;2023-04-30T06:49:25;10.34;65.87
70271;SHT31;57680;54.292;18.598;2023-04-30T06:51:51;10.13;65.01
70271;SHT31;57680;54.292;18.598;2023-04-30T06:54:16;9.98;64.72
70271;SHT31;57680;54.292;18.598;2023-04-30T06:56:42;10.13;65.41
70271;SHT31;57680;54.292;18.598;2023-04-30T06:59:07;10.08;64.97
70271;SHT31;57680;54.292;18.598;2023-04-30T07:01:32;10.20;66.43
70271;SHT31;57680;54.292;18.598;2023-04-30T07:03:58;10.31;65.98
70271;SHT31;57680;54.292;18.598;2023-04-30T07:06:23;10.71;65.65
70271;SHT31;57680;54.292;18.598;2023-04-30T07:08:49;10.85;63.47
70271;SHT31;57680;54.292;18.598;2023-04-30T07:11:14;10.59;61.73
70271;SHT31;57680;54.292;18.598;2023-04-30T07:13:40;10.66;61.53
70271;SHT31;57680;54.292;18.598;2023-04-30T07:16:05;10.58;62.03
70271;SHT31;57680;54.292;18.598;2023-04-30T07:18:31;10.61;61.86
70271;SHT31;57680;54.292;18.598;2023-04-30T07:20:56;10.85;61.84
70271;SHT31;57680;54.292;18.598;2023-04-30T07:23:22;11.14;62.54
70271;SHT31;57680;54.292;18.598;2023-04-30T07:25:48;11.20;59.18
70271;SHT31;57680;54.292;18.598;2023-04-30T07:28:13;11.14;60.34
70271;SHT31;57680;54.292;18.598;2023-04-30T07:30:39;10.95;59.14
70271;SHT31;57680;54.292;18.598;2023-04-30T07:33:04;11.10;57.74
70271;SHT31;57680;54.292;18.598;2023-04-30T07:35:29;11.20;58.56
70271;SHT31;57680;54.292;18.598;2023-04-30T07:37:55;10.88;56.75
70271;SHT31;57680;54.292;18.598;2023-04-30T07:40:20;10.79;56.62
70271;SHT31;57680;54.292;18.598;2023-04-30T07:42:46;10.91;56.95
70271;SHT31;57680;54.292;18.598;2023-04-30T07:45:12;11.07;58.09
70271;SHT31;57680;54.292;18.598;2023-04-30T07:47:37;11.16;54.52
70271;SHT31;57680;54.292;18.598;2023-04-30T07:50:03;10.89;54.60
70271;SHT31;57680;54.292;18.598;2023-04-30T07:52:28;11.06;56.20
70271;SHT31;57680;54.292;18.598;2023-04-30T07:54:53;11.41;57.48
70271;SHT31;57680;54.292;18.598;2023-04-30T07:57:19;11.58;58.45
70271;SHT31;57680;54.292;18.598;2023-04-30T07:59:44;11.51;56.52
70271;SHT31;57680;54.292;18.598;2023-04-30T08:02:10;11.82;55.01
70271;SHT31;57680;54.292;18.598;2023-04-30T08:04:35;11.84;54.17
70271;SHT31;57680;54.292;18.598;2023-04-30T08:07:02;11.31;53.12
70271;SHT31;57680;54.292;18.598;2023-04-30T08:09:27;11.00;54.10
70271;SHT31;57680;54.292;18.598;2023-04-30T08:11:53;11.24;53.19
70271;SHT31;57680;54.292;18.598;2023-04-30T08:14:19;11.63;52.27
70271;SHT31;57680;54.292;18.598;2023-04-30T08:16:44;11.70;52.16
70271;SHT31;57680;54.292;18.598;2023-04-30T08:19:10;11.60;52.60
70271;SHT31;57680;54.292;18.598;2023-04-30T08:21:35;11.22;50.44
70271;SHT31;57680;54.292;18.598;2023-04-30T08:24:01;11.31;52.75
70271;SHT31;57680;54.292;18.598;2023-04-30T08:26:26;11.60;50.46
70271;SHT31;57680;54.292;18.598;2023-04-30T08:28:52;11.89;49.83
70271;SHT31;57680;54.292;18.598;2023-04-30T08:31:17;12.25;54.79
70271;SHT31;57680;54.292;18.598;2023-04-30T08:33:43;12.30;50.60
70271;SHT31;57680;54.292;18.598;2023-04-30T08:36:08;11.88;51.05
70271;SHT31;57680;54.292;18.598;2023-04-30T08:38:34;11.99;45.50
70271;SHT31;57680;54.292;18.598;2023-04-30T08:41:10;12.21;46.23
70271;SHT31;57680;54.292;18.598;2023-04-30T08:43:36;12.05;48.05
70271;SHT31;57680;54.292;18.598;2023-04-30T08:46:03;11.74;47.77
70271;SHT31;57680;54.292;18.598;2023-04-30T08:48:29;11.51;48.03
70271;SHT31;57680;54.292;18.598;2023-04-30T08:50:58;11.16;48.33
70271;SHT31;57680;54.292;18.598;2023-04-30T08:53:24;11.61;49.38
70271;SHT31;57680;54.292;18.598;2023-04-30T08:55:50;12.33;49.25
70271;SHT31;57680;54.292;18.598;2023-04-30T08:58:16;12.87;48.45
70271;SHT31;57680;54.292;18.598;2023-04-30T09:00:41;12.93;50.25
70271;SHT31;57680;54.292;18.598;2023-04-30T09:03:08;13.04;47.84
70271;SHT31;57680;54.292;18.598;2023-04-30T09:05:33;12.43;45.91
70271;SHT31;57680;54.292;18.598;2023-04-30T09:08:00;12.04;47.06
70271;SHT31;57680;54.292;18.598;2023-04-30T09:10:25;12.16;46.29
70271;SHT31;57680;54.292;18.598;2023-04-30T09:12:58;12.29;47.39
70271;SHT31;57680;54.292;18.598;2023-04-30T09:15:24;12.84;49.74
70271;SHT31;57680;54.292;18.598;2023-04-30T09:17:50;13.16;48.89
70271;SHT31;57680;54.292;18.598;2023-04-30T09:20:16;12.70;48.31
70271;SHT31;57680;54.292;18.598;2023-04-30T09:22:41;12.57;50.22
70271;SHT31;57680;54.292;18.598;2023-04-30T09:25:08;12.81;48.54
70271;SHT31;57680;54.292;18.598;2023-04-30T09:27:33;13.10;47.34
70271;SHT31;57680;54.292;18.598;2023-04-30T09:29:59;13.21;48.34
70271;SHT31;57680;54.292;18.598;2023-04-30T09:32:24;13.46;48.35
70271;SHT31;57680;54.292;18.598;2023-04-30T09:34:50;13.35;44.06
70271;SHT31;57680;54.292;18.598;2023-04-30T09:37:16;12.91;46.05
70271;SHT31;57680;54.292;18.598;2023-04-30T09:39:52;12.02;46.20
70271;SHT31;57680;54.292;18.598;2023-04-30T09:42:18;12.04;46.80
70271;SHT31;57680;54.292;18.598;2023-04-30T09:44:45;12.11;45.39
70271;SHT31;57680;54.292;18.598;2023-04-30T09:47:17;12.73;46.03
70271;SHT31;57680;54.292;18.598;2023-04-30T09:49:47;12.87;44.40
70271;SHT31;57680;54.292;18.598;2023-04-30T09:52:14;12.95;45.61
70271;SHT31;57680;54.292;18.598;2023-04-30T09:54:40;12.90;45.69
70271;SHT31;57680;54.292;18.598;2023-04-30T09:57:08;12.76;43.37
70271;SHT31;57680;54.292;18.598;2023-04-30T09:59:34;12.44;44.47
70271;SHT31;57680;54.292;18.598;2023-04-30T10:02:01;12.70;46.76
70271;SHT31;57680;54.292;18.598;2023-04-30T10:04:38;13.08;45.38
70271;SHT31;57680;54.292;18.598;2023-04-30T10:09:40;13.04;41.87
70271;SHT31;57680;54.292;18.598;2023-04-30T10:12:09;13.32;42.59
70271;SHT31;57680;54.292;18.598;2023-04-30T10:14:37;13.28;42.12
70271;SHT31;57680;54.292;18.598;2023-04-30T10:17:12;13.29;42.16
70271;SHT31;57680;54.292;18.598;2023-04-30T10:19:38;13.76;43.70
70271;SHT31;57680;54.292;18.598;2023-04-30T10:22:04;13.59;42.50
70271;SHT31;57680;54.292;18.598;2023-04-30T10:24:30;13.34;40.82
70271;SHT31;57680;54.292;18.598;2023-04-30T10:26:55;13.41;43.05
70271;SHT31;57680;54.292;18.598;2023-04-30T10:29:21;13.55;42.55
70271;SHT31;57680;54.292;18.598;2023-04-30T10:31:48;13.82;41.56
70271;SHT31;57680;54.292;18.598;2023-04-30T10:37:37;13.66;42.05
70271;SHT31;57680;54.292;18.598;2023-04-30T10:40:05;13.86;41.45
70271;SHT31;57680;54.292;18.598;2023-04-30T10:42:33;13.45;39.78
70271;SHT31;57680;54.292;18.598;2023-04-30T10:45:03;13.53;41.52
70271;SHT31;57680;54.292;18.598;2023-04-30T10:47:29;13.14;39.16
70271;SHT31;57680;54.292;18.598;2023-04-30T10:50:07;13.00;39.64
70271;SHT31;57680;54.292;18.598;2023-04-30T10:52:33;12.83;39.94
70271;SHT31;57680;54.292;18.598;2023-04-30T10:55:03;12.94;40.28
70271;SHT31;57680;54.292;18.598;2023-04-30T10:57:29;12.91;40.22
70271;SHT31;57680;54.292;18.598;2023-04-30T11:02:42;12.77;38.90
70271;SHT31;57680;54.292;18.598;2023-04-30T11:05:12;12.61;39.14
70271;SHT31;57680;54.292;18.598;2023-04-30T11:07:49;12.61;41.68
70271;SHT31;57680;54.292;18.598;2023-04-30T11:10:16;12.50;39.24
70271;SHT31;57680;54.292;18.598;2023-04-30T11:12:47;12.85;41.66
70271;SHT31;57680;54.292;18.598;2023-04-30T11:15:16;12.83;39.26
70271;SHT31;57680;54.292;18.598;2023-04-30T11:17:43;13.05;42.64
70271;SHT31;57680;54.292;18.598;2023-04-30T11:20:11;12.54;38.55
70271;SHT31;57680;54.292;18.598;2023-04-30T11:22:37;12.53;40.63
70271;SHT31;57680;54.292;18.598;2023-04-30T11:25:08;12.37;40.57
70271;SHT31;57680;54.292;18.598;2023-04-30T11:27:41;12.29;41.41
70271;SHT31;57680;54.292;18.598;2023-04-30T11:30:15;12.50;41.47
70271;SHT31;57680;54.292;18.598;2023-04-30T11:32:45;12.60;39.74
70271;SHT31;57680;54.292;18.598;2023-04-30T11:35:10;12.67;38.25
70271;SHT31;57680;54.292;18.598;2023-04-30T11:37:41;12.88;41.87
70271;SHT31;57680;54.292;18.598;2023-04-30T11:40:08;12.83;39.99
70271;SHT31;57680;54.292;18.598;2023-04-30T11:42:34;13.04;40.76
70271;SHT31;57680;54.292;18.598;2023-04-30T11:45:10;13.12;37.88
70271;SHT31;57680;54.292;18.598;2023-04-30T11:47:50;12.85;37.41
70271;SHT31;57680;54.292;18.598;2023-04-30T11:50:17;12.53;38.00
70271;SHT31;57680;54.292;18.598;2023-04-30T11:52:49;12.72;39.06
70271;SHT31;57680;54.292;18.598;2023-04-30T11:55:19;12.60;39.52
70271;SHT31;57680;54.292;18.598;2023-04-30T11:57:49;12.28;38.51
70271;SHT31;57680;54.292;18.598;2023-04-30T12:00:17;12.36;40.46
70271;SHT31;57680;54.292;18.598;2023-04-30T12:02:48;12.40;41.40
70271;SHT31;57680;54.292;18.598;2023-04-30T12:05:20;12.74;41.52
70271;SHT31;57680;54.292;18.598;2023-04-30T12:07:56;12.93;41.47
70271;SHT31;57680;54.292;18.598;2023-04-30T12:10:24;12.85;41.09
70271;SHT31;57680;54.292;18.598;2023-04-30T12:12:50;12.66;39.13
70271;SHT31;57680;54.292;18.598;2023-04-30T12:15:18;12.84;41.16
70271;SHT31;57680;54.292;18.598;2023-04-30T12:17:44;12.80;40.43
70271;SHT31;57680;54.292;18.598;2023-04-30T12:20:11;12.80;40.08
70271;SHT31;57680;54.292;18.598;2023-04-30T12:22:37;12.73;39.86
70271;SHT31;57680;54.292;18.598;2023-04-30T12:25:14;12.52;39.84
70271;SHT31;57680;54.292;18.598;2023-04-30T12:27:41;12.56;40.89
70271;SHT31;57680;54.292;18.598;2023-04-30T12:30:07;12.23;38.76
70271;SHT31;57680;54.292;18.598;2023-04-30T12:32:40;12.30;40.69
70271;SHT31;57680;54.292;18.598;2023-04-30T12:35:07;12.54;42.95
70271;SHT31;57680;54.292;18.598;2023-04-30T12:37:32;12.43;40.33
70271;SHT31;57680;54.292;18.598;2023-04-30T12:39:57;12.30;41.11
70271;SHT31;57680;54.292;18.598;2023-04-30T12:42:23;12.39;41.42
70271;SHT31;57680;54.292;18.598;2023-04-30T12:44:49;12.23;40.82
70271;SHT31;57680;54.292;18.598;2023-04-30T12:47:14;12.36;42.55
70271;SHT31;57680;54.292;18.598;2023-04-30T12:49:40;12.63;42.28
70271;SHT31;57680;54.292;18.598;2023-04-30T12:52:10;12.52;41.70
70271;SHT31;57680;54.292;18.598;2023-04-30T12:54:36;12.47;43.19
70271;SHT31;57680;54.292;18.598;2023-04-30T12:57:03;12.50;42.66
70271;SHT31;57680;54.292;18.598;2023-04-30T12:59:31;12.23;40.48
70271;SHT31;57680;54.292;18.598;2023-04-30T13:02:09;11.98;39.79
70271;SHT31;57680;54.292;18.598;2023-04-30T13:04:35;12.26;41.41
70271;SHT31;57680;54.292;18.598;2023-04-30T13:07:00;12.25;41.02
70271;SHT31;57680;54.292;18.598;2023-04-30T13:09:26;12.25;40.56
70271;SHT31;57680;54.292;18.598;2023-04-30T13:11:52;12.12;39.69
70271;SHT31;57680;54.292;18.598;2023-04-30T13:14:17;12.22;42.78
70271;SHT31;57680;54.292;18.598;2023-04-30T13:16:43;12.15;41.66
70271;SHT31;57680;54.292;18.598;2023-04-30T13:19:08;12.33;43.35
70271;SHT31;57680;54.292;18.598;2023-04-30T13:21:34;12.21;40.66
70271;SHT31;57680;54.292;18.598;2023-04-30T13:23:59;12.19;40.88
70271;SHT31;57680;54.292;18.598;2023-04-30T13:26:25;12.28;42.12
70271;SHT31;57680;54.292;18.598;2023-04-30T13:28:50;12.35;41.37
70271;SHT31;57680;54.292;18.598;2023-04-30T13:31:16;12.30;40.66
70271;SHT31;57680;54.292;18.598;2023-04-30T13:33:41;12.05;40.94
70271;SHT31;57680;54.292;18.598;2023-04-30T13:36:07;12.06;40.23
70271;SHT31;57680;54.292;18.598;2023-04-30T13:38:32;12.02;40.70
70271;SHT31;57680;54.292;18.598;2023-04-30T13:40:58;12.16;41.71
70271;SHT31;57680;54.292;18.598;2023-04-30T13:43:23;12.12;41.72
70271;SHT31;57680;54.292;18.598;2023-04-30T13:45:50;12.13;42.15
70271;SHT31;57680;54.292;18.598;2023-04-30T13:48:15;12.29;42.85
70271;SHT31;57680;54.292;18.598;2023-04-30T13:50:41;12.37;42.46
70271;SHT31;57680;54.292;18.598;2023-04-30T13:53:06;12.37;42.03
70271;SHT31;57680;54.292;18.598;2023-04-30T13:55:32;12.36;44.06
70271;SHT31;57680;54.292;18.598;2023-04-30T13:57:57;12.28;42.63
70271;SHT31;57680;54.292;18.598;2023-04-30T14:00:23;12.29;43.44
70271;SHT31;57680;54.292;18.598;2023-04-30T14:02:48;12.47;43.63
70271;SHT31;57680;54.292;18.598;2023-04-30T14:05:13;12.25;43.18
70271;SHT31;57680;54.292;18.598;2023-04-30T14:07:39;12.15;44.05
70271;SHT31;57680;54.292;18.598;2023-04-30T14:10:05;11.82;44.16
70271;SHT31;57680;54.292;18.598;2023-04-30T14:12:30;11.91;45.88
70271;SHT31;57680;54.292;18.598;2023-04-30T14:14:56;11.98;45.93
70271;SHT31;57680;54.292;18.598;2023-04-30T14:17:22;11.94;44.24
70271;SHT31;57680;54.292;18.598;2023-04-30T14:19:48;11.94;43.38
70271;SHT31;57680;54.292;18.598;2023-04-30T14:22:14;11.95;44.16
70271;SHT31;57680;54.292;18.598;2023-04-30T14:24:39;12.06;45.21
70271;SHT31;57680;54.292;18.598;2023-04-30T14:27:05;11.81;43.81
70271;SHT31;57680;54.292;18.598;2023-04-30T14:29:30;11.77;44.51
70271;SHT31;57680;54.292;18.598;2023-04-30T14:31:56;11.65;45.40
70271;SHT31;57680;54.292;18.598;2023-04-30T14:34:21;11.55;45.18
70271;SHT31;57680;54.292;18.598;2023-04-30T14:36:47;11.51;46.25
70271;SHT31;57680;54.292;18.598;2023-04-30T14:39:13;11.48;45.77
70271;SHT31;57680;54.292;18.598;2023-04-30T14:41:38;11.64;48.32
70271;SHT31;57680;54.292;18.598;2023-04-30T14:44:04;11.55;46.50
70271;SHT31;57680;54.292;18.598;2023-04-30T14:46:29;11.63;47.84
70271;SHT31;57680;54.292;18.598;2023-04-30T14:48:55;11.44;46.56
70271;SHT31;57680;54.292;18.598;2023-04-30T14:51:21;11.31;47.42
70271;SHT31;57680;54.292;18.598;2023-04-30T14:53:46;11.30;47.45
70271;SHT31;57680;54.292;18.598;2023-04-30T14:56:12;11.43;48.78
70271;SHT31;57680;54.292;18.598;2023-04-30T14:58:38;11.35;48.62
70271;SHT31;57680;54.292;18.598;2023-04-30T15:01:03;11.40;48.12
70271;SHT31;57680;54.292;18.598;2023-04-30T15:03:29;11.44;47.55
70271;SHT31;57680;54.292;18.598;2023-04-30T15:05:55;11.31;47.44
70271;SHT31;57680;54.292;18.598;2023-04-30T15:08:20;11.38;49.17
70271;SHT31;57680;54.292;18.598;2023-04-30T15:10:45;11.44;48.67
70271;SHT31;57680;54.292;18.598;2023-04-30T15:13:11;11.44;48.15
70271;SHT31;57680;54.292;18.598;2023-04-30T15:15:36;11.27;48.61
70271;SHT31;57680;54.292;18.598;2023-04-30T15:18:02;11.24;48.84
70271;SHT31;57680;54.292;18.598;2023-04-30T15:20:28;11.17;48.42
70271;SHT31;57680;54.292;18.598;2023-04-30T15:22:53;11.06;48.72
70271;SHT31;57680;54.292;18.598;2023-04-30T15:25:19;11.10;49.45
70271;SHT31;57680;54.292;18.598;2023-04-30T15:27:45;11.13;50.02
70271;SHT31;57680;54.292;18.598;2023-04-30T15:30:11;11.20;49.46
70271;SHT31;57680;54.292;18.598;2023-04-30T15:32:36;11.10;48.32
70271;SHT31;57680;54.292;18.598;2023-04-30T15:35:02;10.99;48.66
70271;SHT31;57680;54.292;18.598;2023-04-30T15:37:27;10.95;48.74
70271;SHT31;57680;54.292;18.598;2023-04-30T15:39:53;10.93;49.66
70271;SHT31;57680;54.292;18.598;2023-04-30T15:42:18;11.04;49.11
70271;SHT31;57680;54.292;18.598;2023-04-30T15:44:44;11.07;49.65
70271;SHT31;57680;54.292;18.598;2023-04-30T15:47:10;10.97;48.78
70271;SHT31;57680;54.292;18.598;2023-04-30T15:49:36;10.93;48.41
70271;SHT31;57680;54.292;18.598;2023-04-30T15:52:02;10.92;48.73
70271;SHT31;57680;54.292;18.598;2023-04-30T15:54:28;10.88;48.55
70271;SHT31;57680;54.292;18.598;2023-04-30T15:56:53;10.86;48.70
70271;SHT31;57680;54.292;18.598;2023-04-30T15:59:18;10.80;48.97
70271;SHT31;57680;54.292;18.598;2023-04-30T16:01:44;10.75;48.49